sensor_id;sensor_type;location;lat;lon;timestamp;P1;durP1;ratioP1;P2;durP2;ratioP2
76978;SDS011;65911;47.502;19.148;2023-08-21T00:00:35;10.48;;;7.38;;
76978;SDS011;65911;47.502;19.148;2023-08-21T00:03:37;11.07;;;7.97;;
76978;SDS011;65911;47.502;19.148;2023-08-21T00:06:40;9.50;;;7.47;;
76978;SDS011;65911;47.502;19.148;2023-08-21T00:09:42;9.27;;;7.45;;
76978;SDS011;65911;47.502;19.148;2023-08-21T00:12:44;9.15;;;7.90;;
76978;SDS011;65911;47.502;19.148;2023-08-21T00:15:47;11.18;;;7.45;;
76978;SDS011;65911;47.502;19.148;2023-08-21T00:18:49;8.23;;;7.25;;
76978;SDS011;65911;47.502;19.148;2023-08-21T00:21:51;9.48;;;7.50;;
76978;SDS011;65911;47.502;19.148;2023-08-21T00:24:53;9.90;;;7.55;;
76978;SDS011;65911;47.502;19.148;2023-08-21T00:27:55;10.83;;;7.30;;
76978;SDS011;65911;47.502;19.148;2023-08-21T00:31:04;9.45;;;7.90;;
76978;SDS011;65911;47.502;19.148;2023-08-21T00:34:07;8.63;;;6.88;;
76978;SDS011;65911;47.502;19.148;2023-08-21T00:37:09;7.83;;;7.03;;
76978;SDS011;65911;47.502;19.148;2023-08-21T00:40:13;8.60;;;6.95;;
76978;SDS011;65911;47.502;19.148;2023-08-21T00:43:15;9.02;;;7.30;;
76978;SDS011;65911;47.502;19.148;2023-08-21T00:46:17;10.27;;;7.15;;
76978;SDS011;65911;47.502;19.148;2023-08-21T00:49:20;9.70;;;6.75;;
76978;SDS011;65911;47.502;19.148;2023-08-21T00:52:22;9.40;;;6.78;;
76978;SDS011;65911;47.502;19.148;2023-08-21T00:55:25;9.00;;;6.97;;
76978;SDS011;65911;47.502;19.148;2023-08-21T00:58:27;7.50;;;6.73;;
76978;SDS011;65911;47.502;19.148;2023-08-21T01:01:29;9.65;;;7.47;;
76978;SDS011;65911;47.502;19.148;2023-08-21T01:04:32;7.32;;;6.60;;
76978;SDS011;65911;47.502;19.148;2023-08-21T01:07:36;8.67;;;6.80;;
76978;SDS011;65911;47.502;19.148;2023-08-21T01:17:25;8.68;;;6.90;;
76978;SDS011;65911;47.502;19.148;2023-08-21T01:20:27;8.57;;;6.75;;
76978;SDS011;65911;47.502;19.148;2023-08-21T01:23:31;8.55;;;6.40;;
76978;SDS011;65911;47.502;19.148;2023-08-21T01:26:36;8.93;;;7.25;;
76978;SDS011;65911;47.502;19.148;2023-08-21T01:29:39;7.73;;;6.80;;
76978;SDS011;65911;47.502;19.148;2023-08-21T01:36:10;9.10;;;6.47;;
76978;SDS011;65911;47.502;19.148;2023-08-21T01:39:13;8.93;;;7.00;;
76978;SDS011;65911;47.502;19.148;2023-08-21T01:42:15;7.78;;;6.63;;
76978;SDS011;65911;47.502;19.148;2023-08-21T01:45:17;7.80;;;6.45;;
76978;SDS011;65911;47.502;19.148;2023-08-21T01:48:19;7.70;;;6.70;;
76978;SDS011;65911;47.502;19.148;2023-08-21T01:51:22;8.65;;;6.32;;
76978;SDS011;65911;47.502;19.148;2023-08-21T01:54:24;9.18;;;7.53;;
76978;SDS011;65911;47.502;19.148;2023-08-21T01:57:26;8.00;;;7.03;;
76978;SDS011;65911;47.502;19.148;2023-08-21T02:00:29;8.10;;;6.60;;
76978;SDS011;65911;47.502;19.148;2023-08-21T02:03:31;8.15;;;6.55;;
76978;SDS011;65911;47.502;19.148;2023-08-21T02:06:33;9.80;;;6.63;;
76978;SDS011;65911;47.502;19.148;2023-08-21T02:09:35;8.13;;;6.13;;
76978;SDS011;65911;47.502;19.148;2023-08-21T02:12:37;9.80;;;6.10;;
76978;SDS011;65911;47.502;19.148;2023-08-21T02:15:43;8.30;;;6.57;;
76978;SDS011;65911;47.502;19.148;2023-08-21T02:18:46;10.23;;;6.60;;
76978;SDS011;65911;47.502;19.148;2023-08-21T02:21:48;9.25;;;6.78;;
76978;SDS011;65911;47.502;19.148;2023-08-21T02:24:50;8.55;;;6.82;;
76978;SDS011;65911;47.502;19.148;2023-08-21T02:27:53;7.00;;;6.28;;
76978;SDS011;65911;47.502;19.148;2023-08-21T02:30:59;10.50;;;6.83;;
76978;SDS011;65911;47.502;19.148;2023-08-21T02:34:01;7.47;;;6.68;;
76978;SDS011;65911;47.502;19.148;2023-08-21T02:37:03;7.47;;;6.32;;
76978;SDS011;65911;47.502;19.148;2023-08-21T02:40:07;8.63;;;7.33;;
76978;SDS011;65911;47.502;19.148;2023-08-21T02:43:10;8.15;;;6.45;;
76978;SDS011;65911;47.502;19.148;2023-08-21T02:46:12;7.28;;;6.47;;
76978;SDS011;65911;47.502;19.148;2023-08-21T02:49:15;8.38;;;7.20;;
76978;SDS011;65911;47.502;19.148;2023-08-21T02:52:17;8.50;;;6.43;;
76978;SDS011;65911;47.502;19.148;2023-08-21T02:55:19;10.25;;;7.00;;
76978;SDS011;65911;47.502;19.148;2023-08-21T02:58:22;10.57;;;6.95;;
76978;SDS011;65911;47.502;19.148;2023-08-21T03:01:25;7.93;;;6.70;;
76978;SDS011;65911;47.502;19.148;2023-08-21T03:04:27;7.60;;;6.13;;
76978;SDS011;65911;47.502;19.148;2023-08-21T03:07:29;7.60;;;6.60;;
76978;SDS011;65911;47.502;19.148;2023-08-21T03:10:31;9.50;;;6.93;;
76978;SDS011;65911;47.502;19.148;2023-08-21T03:13:35;11.27;;;6.88;;
76978;SDS011;65911;47.502;19.148;2023-08-21T03:16:37;8.40;;;7.15;;
76978;SDS011;65911;47.502;19.148;2023-08-21T03:19:40;8.48;;;7.18;;
76978;SDS011;65911;47.502;19.148;2023-08-21T03:22:42;8.65;;;7.75;;
76978;SDS011;65911;47.502;19.148;2023-08-21T03:25:45;7.57;;;6.72;;
76978;SDS011;65911;47.502;19.148;2023-08-21T03:28:47;14.30;;;7.93;;
76978;SDS011;65911;47.502;19.148;2023-08-21T03:31:49;8.03;;;7.23;;
76978;SDS011;65911;47.502;19.148;2023-08-21T03:34:52;8.70;;;7.30;;
76978;SDS011;65911;47.502;19.148;2023-08-21T03:37:54;9.40;;;7.60;;
76978;SDS011;65911;47.502;19.148;2023-08-21T03:40:57;10.63;;;7.43;;
76978;SDS011;65911;47.502;19.148;2023-08-21T03:44:01;9.25;;;6.97;;
76978;SDS011;65911;47.502;19.148;2023-08-21T03:47:03;11.02;;;7.15;;
76978;SDS011;65911;47.502;19.148;2023-08-21T03:50:08;8.48;;;7.57;;
76978;SDS011;65911;47.502;19.148;2023-08-21T03:53:11;9.40;;;8.10;;
76978;SDS011;65911;47.502;19.148;2023-08-21T03:56:13;11.55;;;7.70;;
76978;SDS011;65911;47.502;19.148;2023-08-21T03:59:16;10.18;;;7.40;;
76978;SDS011;65911;47.502;19.148;2023-08-21T04:02:18;9.63;;;7.63;;
76978;SDS011;65911;47.502;19.148;2023-08-21T04:05:20;8.82;;;7.78;;
76978;SDS011;65911;47.502;19.148;2023-08-21T04:08:22;10.18;;;7.45;;
76978;SDS011;65911;47.502;19.148;2023-08-21T04:11:25;8.37;;;7.33;;
76978;SDS011;65911;47.502;19.148;2023-08-21T04:14:27;9.48;;;7.03;;
76978;SDS011;65911;47.502;19.148;2023-08-21T04:17:29;9.85;;;7.78;;
76978;SDS011;65911;47.502;19.148;2023-08-21T04:20:32;10.50;;;7.47;;
76978;SDS011;65911;47.502;19.148;2023-08-21T04:23:34;10.57;;;7.85;;
76978;SDS011;65911;47.502;19.148;2023-08-21T04:26:36;9.07;;;7.47;;
76978;SDS011;65911;47.502;19.148;2023-08-21T04:29:39;23.02;;;7.75;;
76978;SDS011;65911;47.502;19.148;2023-08-21T04:32:41;24.77;;;7.13;;
76978;SDS011;65911;47.502;19.148;2023-08-21T04:35:44;12.70;;;6.78;;
76978;SDS011;65911;47.502;19.148;2023-08-21T04:38:46;13.43;;;7.35;;
76978;SDS011;65911;47.502;19.148;2023-08-21T04:41:49;9.80;;;7.77;;
76978;SDS011;65911;47.502;19.148;2023-08-21T04:44:53;12.63;;;7.65;;
76978;SDS011;65911;47.502;19.148;2023-08-21T04:47:55;10.23;;;7.07;;
76978;SDS011;65911;47.502;19.148;2023-08-21T04:51:00;10.00;;;7.07;;
76978;SDS011;65911;47.502;19.148;2023-08-21T04:54:02;9.50;;;6.93;;
76978;SDS011;65911;47.502;19.148;2023-08-21T04:57:05;11.43;;;7.47;;
76978;SDS011;65911;47.502;19.148;2023-08-21T05:00:08;9.20;;;7.15;;
76978;SDS011;65911;47.502;19.148;2023-08-21T05:03:14;8.93;;;7.20;;
76978;SDS011;65911;47.502;19.148;2023-08-21T05:06:19;9.55;;;7.10;;
76978;SDS011;65911;47.502;19.148;2023-08-21T05:09:21;11.68;;;7.30;;
76978;SDS011;65911;47.502;19.148;2023-08-21T05:12:24;11.67;;;7.13;;
76978;SDS011;65911;47.502;19.148;2023-08-21T05:15:27;7.80;;;7.00;;
76978;SDS011;65911;47.502;19.148;2023-08-21T05:18:30;8.80;;;6.75;;
76978;SDS011;65911;47.502;19.148;2023-08-21T05:21:32;8.32;;;7.05;;
76978;SDS011;65911;47.502;19.148;2023-08-21T05:24:35;11.23;;;7.20;;
76978;SDS011;65911;47.502;19.148;2023-08-21T05:27:39;10.75;;;7.35;;
76978;SDS011;65911;47.502;19.148;2023-08-21T05:30:41;10.20;;;7.57;;
76978;SDS011;65911;47.502;19.148;2023-08-21T05:33:44;9.23;;;7.30;;
76978;SDS011;65911;47.502;19.148;2023-08-21T05:36:48;8.88;;;7.13;;
76978;SDS011;65911;47.502;19.148;2023-08-21T05:39:50;9.85;;;7.05;;
76978;SDS011;65911;47.502;19.148;2023-08-21T05:42:53;15.33;;;7.70;;
76978;SDS011;65911;47.502;19.148;2023-08-21T05:45:55;9.68;;;6.95;;
76978;SDS011;65911;47.502;19.148;2023-08-21T05:48:58;8.52;;;6.88;;
76978;SDS011;65911;47.502;19.148;2023-08-21T05:52:00;9.13;;;7.10;;
76978;SDS011;65911;47.502;19.148;2023-08-21T05:55:03;8.95;;;7.18;;
76978;SDS011;65911;47.502;19.148;2023-08-21T05:58:06;9.82;;;7.20;;
76978;SDS011;65911;47.502;19.148;2023-08-21T06:01:09;10.63;;;6.88;;
76978;SDS011;65911;47.502;19.148;2023-08-21T06:04:11;10.23;;;7.00;;
76978;SDS011;65911;47.502;19.148;2023-08-21T06:07:17;11.48;;;7.07;;
76978;SDS011;65911;47.502;19.148;2023-08-21T06:10:19;8.65;;;6.82;;
76978;SDS011;65911;47.502;19.148;2023-08-21T06:13:21;8.93;;;7.10;;
76978;SDS011;65911;47.502;19.148;2023-08-21T06:16:26;8.10;;;6.97;;
76978;SDS011;65911;47.502;19.148;2023-08-21T06:19:30;9.20;;;6.88;;
76978;SDS011;65911;47.502;19.148;2023-08-21T06:22:32;8.20;;;7.00;;
76978;SDS011;65911;47.502;19.148;2023-08-21T06:25:34;11.52;;;7.22;;
76978;SDS011;65911;47.502;19.148;2023-08-21T06:28:37;8.23;;;6.97;;
76978;SDS011;65911;47.502;19.148;2023-08-21T06:31:39;9.90;;;6.95;;
76978;SDS011;65911;47.502;19.148;2023-08-21T06:34:41;10.37;;;7.07;;
76978;SDS011;65911;47.502;19.148;2023-08-21T06:37:44;9.10;;;6.75;;
76978;SDS011;65911;47.502;19.148;2023-08-21T06:40:46;8.57;;;6.35;;
76978;SDS011;65911;47.502;19.148;2023-08-21T06:43:48;9.77;;;6.97;;
76978;SDS011;65911;47.502;19.148;2023-08-21T06:46:52;11.20;;;6.85;;
76978;SDS011;65911;47.502;19.148;2023-08-21T06:49:55;7.97;;;7.05;;
76978;SDS011;65911;47.502;19.148;2023-08-21T06:52:57;9.93;;;6.85;;
76978;SDS011;65911;47.502;19.148;2023-08-21T06:55:59;9.75;;;7.03;;
76978;SDS011;65911;47.502;19.148;2023-08-21T06:59:02;9.05;;;7.18;;
76978;SDS011;65911;47.502;19.148;2023-08-21T07:02:04;10.82;;;7.32;;
76978;SDS011;65911;47.502;19.148;2023-08-21T07:05:07;9.00;;;6.30;;
76978;SDS011;65911;47.502;19.148;2023-08-21T07:08:13;9.52;;;6.80;;
76978;SDS011;65911;47.502;19.148;2023-08-21T07:11:15;11.20;;;6.95;;
76978;SDS011;65911;47.502;19.148;2023-08-21T07:14:19;8.60;;;7.33;;
76978;SDS011;65911;47.502;19.148;2023-08-21T07:17:21;7.95;;;7.07;;
76978;SDS011;65911;47.502;19.148;2023-08-21T07:20:23;8.43;;;6.80;;
76978;SDS011;65911;47.502;19.148;2023-08-21T07:23:26;8.52;;;7.63;;
76978;SDS011;65911;47.502;19.148;2023-08-21T07:26:28;8.35;;;7.32;;
76978;SDS011;65911;47.502;19.148;2023-08-21T07:29:30;8.85;;;7.85;;
76978;SDS011;65911;47.502;19.148;2023-08-21T07:32:33;10.40;;;7.88;;
76978;SDS011;65911;47.502;19.148;2023-08-21T07:35:35;9.10;;;7.20;;
76978;SDS011;65911;47.502;19.148;2023-08-21T07:38:44;9.48;;;7.20;;
76978;SDS011;65911;47.502;19.148;2023-08-21T07:42:18;9.20;;;7.18;;
76978;SDS011;65911;47.502;19.148;2023-08-21T07:46:53;9.23;;;6.47;;
76978;SDS011;65911;47.502;19.148;2023-08-21T07:51:25;9.98;;;7.05;;
76978;SDS011;65911;47.502;19.148;2023-08-21T07:54:27;9.38;;;7.82;;
76978;SDS011;65911;47.502;19.148;2023-08-21T07:57:30;8.65;;;7.63;;
76978;SDS011;65911;47.502;19.148;2023-08-21T08:00:32;10.20;;;7.50;;
76978;SDS011;65911;47.502;19.148;2023-08-21T08:03:34;9.23;;;7.43;;
76978;SDS011;65911;47.502;19.148;2023-08-21T08:06:37;8.20;;;7.03;;
76978;SDS011;65911;47.502;19.148;2023-08-21T08:09:42;8.33;;;6.97;;
76978;SDS011;65911;47.502;19.148;2023-08-21T08:12:45;8.30;;;7.50;;
76978;SDS011;65911;47.502;19.148;2023-08-21T08:15:47;11.52;;;8.30;;
76978;SDS011;65911;47.502;19.148;2023-08-21T08:18:49;9.90;;;7.65;;
76978;SDS011;65911;47.502;19.148;2023-08-21T08:21:52;11.57;;;8.32;;
76978;SDS011;65911;47.502;19.148;2023-08-21T08:24:54;9.35;;;7.97;;
76978;SDS011;65911;47.502;19.148;2023-08-21T08:27:56;9.38;;;8.25;;
76978;SDS011;65911;47.502;19.148;2023-08-21T08:30:59;9.03;;;7.47;;
76978;SDS011;65911;47.502;19.148;2023-08-21T08:34:02;10.27;;;8.45;;
76978;SDS011;65911;47.502;19.148;2023-08-21T08:37:04;9.60;;;7.70;;
76978;SDS011;65911;47.502;19.148;2023-08-21T08:40:07;11.87;;;7.87;;
76978;SDS011;65911;47.502;19.148;2023-08-21T08:43:10;9.18;;;7.72;;
76978;SDS011;65911;47.502;19.148;2023-08-21T08:46:13;10.75;;;8.10;;
76978;SDS011;65911;47.502;19.148;2023-08-21T08:49:16;11.48;;;8.13;;
76978;SDS011;65911;47.502;19.148;2023-08-21T08:52:19;9.10;;;7.85;;
76978;SDS011;65911;47.502;19.148;2023-08-21T08:55:22;8.93;;;8.02;;
76978;SDS011;65911;47.502;19.148;2023-08-21T08:58:24;9.18;;;8.27;;
76978;SDS011;65911;47.502;19.148;2023-08-21T09:01:26;8.73;;;7.40;;
76978;SDS011;65911;47.502;19.148;2023-08-21T09:04:29;8.07;;;7.28;;
76978;SDS011;65911;47.502;19.148;2023-08-21T09:07:31;8.98;;;7.78;;
76978;SDS011;65911;47.502;19.148;2023-08-21T09:10:35;8.83;;;7.13;;
76978;SDS011;65911;47.502;19.148;2023-08-21T09:13:38;9.93;;;7.43;;
76978;SDS011;65911;47.502;19.148;2023-08-21T09:16:58;9.15;;;8.05;;
76978;SDS011;65911;47.502;19.148;2023-08-21T09:20:06;8.20;;;7.40;;
76978;SDS011;65911;47.502;19.148;2023-08-21T09:23:15;9.10;;;7.20;;
76978;SDS011;65911;47.502;19.148;2023-08-21T09:26:19;9.50;;;7.82;;
76978;SDS011;65911;47.502;19.148;2023-08-21T09:29:26;8.85;;;7.50;;
76978;SDS011;65911;47.502;19.148;2023-08-21T09:32:29;8.43;;;7.47;;
76978;SDS011;65911;47.502;19.148;2023-08-21T09:35:32;8.60;;;7.70;;
76978;SDS011;65911;47.502;19.148;2023-08-21T09:38:35;11.63;;;7.82;;
76978;SDS011;65911;47.502;19.148;2023-08-21T09:41:37;10.23;;;7.80;;
76978;SDS011;65911;47.502;19.148;2023-08-21T09:44:40;8.25;;;7.45;;
76978;SDS011;65911;47.502;19.148;2023-08-21T09:47:45;8.75;;;7.43;;
76978;SDS011;65911;47.502;19.148;2023-08-21T09:50:47;9.70;;;7.80;;
76978;SDS011;65911;47.502;19.148;2023-08-21T09:53:50;8.53;;;7.50;;
76978;SDS011;65911;47.502;19.148;2023-08-21T09:56:52;8.95;;;7.28;;
76978;SDS011;65911;47.502;19.148;2023-08-21T09:59:55;8.68;;;7.50;;
76978;SDS011;65911;47.502;19.148;2023-08-21T10:03:04;9.82;;;7.50;;
76978;SDS011;65911;47.502;19.148;2023-08-21T10:06:09;8.07;;;7.28;;
76978;SDS011;65911;47.502;19.148;2023-08-21T10:09:12;8.98;;;8.00;;
76978;SDS011;65911;47.502;19.148;2023-08-21T10:12:14;10.15;;;7.47;;
76978;SDS011;65911;47.502;19.148;2023-08-21T10:15:18;8.77;;;7.53;;
76978;SDS011;65911;47.502;19.148;2023-08-21T10:18:25;9.30;;;7.28;;
76978;SDS011;65911;47.502;19.148;2023-08-21T10:21:34;7.82;;;7.03;;
76978;SDS011;65911;47.502;19.148;2023-08-21T10:24:38;8.23;;;7.40;;
76978;SDS011;65911;47.502;19.148;2023-08-21T10:27:41;8.20;;;7.30;;
76978;SDS011;65911;47.502;19.148;2023-08-21T10:30:44;9.70;;;7.32;;
76978;SDS011;65911;47.502;19.148;2023-08-21T10:33:49;8.00;;;7.20;;
76978;SDS011;65911;47.502;19.148;2023-08-21T10:40:07;7.78;;;6.95;;
76978;SDS011;65911;47.502;19.148;2023-08-21T10:46:52;9.43;;;7.47;;
76978;SDS011;65911;47.502;19.148;2023-08-21T10:49:55;8.13;;;7.00;;
76978;SDS011;65911;47.502;19.148;2023-08-21T10:53:02;8.07;;;7.28;;
76978;SDS011;65911;47.502;19.148;2023-08-21T10:56:05;8.85;;;6.95;;
76978;SDS011;65911;47.502;19.148;2023-08-21T10:59:26;9.02;;;7.40;;
76978;SDS011;65911;47.502;19.148;2023-08-21T11:02:54;11.80;;;7.82;;
76978;SDS011;65911;47.502;19.148;2023-08-21T11:06:03;9.45;;;7.20;;
76978;SDS011;65911;47.502;19.148;2023-08-21T11:09:12;10.33;;;6.47;;
76978;SDS011;65911;47.502;19.148;2023-08-21T11:12:15;9.88;;;7.07;;
76978;SDS011;65911;47.502;19.148;2023-08-21T11:15:20;8.15;;;7.35;;
76978;SDS011;65911;47.502;19.148;2023-08-21T11:18:31;8.47;;;7.00;;
76978;SDS011;65911;47.502;19.148;2023-08-21T11:21:39;9.65;;;7.03;;
76978;SDS011;65911;47.502;19.148;2023-08-21T11:27:45;8.30;;;7.05;;
76978;SDS011;65911;47.502;19.148;2023-08-21T11:30:47;8.13;;;6.82;;
76978;SDS011;65911;47.502;19.148;2023-08-21T11:33:50;8.68;;;7.43;;
76978;SDS011;65911;47.502;19.148;2023-08-21T11:36:53;8.68;;;7.20;;
76978;SDS011;65911;47.502;19.148;2023-08-21T11:39:57;8.20;;;7.17;;
76978;SDS011;65911;47.502;19.148;2023-08-21T11:43:00;8.18;;;6.43;;
76978;SDS011;65911;47.502;19.148;2023-08-21T11:46:03;8.48;;;7.32;;
76978;SDS011;65911;47.502;19.148;2023-08-21T11:49:07;7.95;;;7.15;;
76978;SDS011;65911;47.502;19.148;2023-08-21T11:52:10;7.83;;;7.00;;
76978;SDS011;65911;47.502;19.148;2023-08-21T11:55:13;8.27;;;7.00;;
76978;SDS011;65911;47.502;19.148;2023-08-21T11:58:16;7.65;;;6.88;;
76978;SDS011;65911;47.502;19.148;2023-08-21T12:01:20;7.80;;;7.03;;
76978;SDS011;65911;47.502;19.148;2023-08-21T12:04:23;9.05;;;7.22;;
76978;SDS011;65911;47.502;19.148;2023-08-21T12:07:26;8.93;;;7.13;;
76978;SDS011;65911;47.502;19.148;2023-08-21T12:10:29;9.68;;;7.10;;
76978;SDS011;65911;47.502;19.148;2023-08-21T12:13:31;9.20;;;7.17;;
76978;SDS011;65911;47.502;19.148;2023-08-21T12:16:37;8.55;;;6.63;;
76978;SDS011;65911;47.502;19.148;2023-08-21T12:19:39;7.72;;;6.88;;
76978;SDS011;65911;47.502;19.148;2023-08-21T12:22:41;9.38;;;7.55;;
76978;SDS011;65911;47.502;19.148;2023-08-21T12:25:46;8.10;;;7.30;;
76978;SDS011;65911;47.502;19.148;2023-08-21T12:28:49;8.88;;;7.20;;
76978;SDS011;65911;47.502;19.148;2023-08-21T12:31:51;7.57;;;6.35;;
76978;SDS011;65911;47.502;19.148;2023-08-21T12:34:54;9.83;;;7.20;;
76978;SDS011;65911;47.502;19.148;2023-08-21T12:37:57;9.38;;;7.00;;
76978;SDS011;65911;47.502;19.148;2023-08-21T12:41:01;7.43;;;6.63;;
76978;SDS011;65911;47.502;19.148;2023-08-21T12:44:04;8.32;;;7.13;;
76978;SDS011;65911;47.502;19.148;2023-08-21T12:47:10;7.53;;;6.70;;
76978;SDS011;65911;47.502;19.148;2023-08-21T12:50:13;7.43;;;6.72;;
76978;SDS011;65911;47.502;19.148;2023-08-21T12:53:15;7.75;;;6.70;;
76978;SDS011;65911;47.502;19.148;2023-08-21T12:56:17;9.05;;;6.68;;
76978;SDS011;65911;47.502;19.148;2023-08-21T12:59:20;8.25;;;6.32;;
76978;SDS011;65911;47.502;19.148;2023-08-21T13:02:22;7.68;;;6.40;;
76978;SDS011;65911;47.502;19.148;2023-08-21T13:05:25;7.97;;;6.50;;
76978;SDS011;65911;47.502;19.148;2023-08-21T13:08:28;7.57;;;6.43;;
76978;SDS011;65911;47.502;19.148;2023-08-21T13:11:30;6.72;;;6.10;;
76978;SDS011;65911;47.502;19.148;2023-08-21T13:14:32;8.13;;;6.40;;
76978;SDS011;65911;47.502;19.148;2023-08-21T13:17:35;7.22;;;6.50;;
76978;SDS011;65911;47.502;19.148;2023-08-21T13:20:37;7.78;;;6.43;;
76978;SDS011;65911;47.502;19.148;2023-08-21T13:23:39;6.57;;;5.82;;
76978;SDS011;65911;47.502;19.148;2023-08-21T13:26:42;6.63;;;5.80;;
76978;SDS011;65911;47.502;19.148;2023-08-21T13:29:45;7.17;;;5.97;;
76978;SDS011;65911;47.502;19.148;2023-08-21T13:32:48;6.93;;;6.32;;
76978;SDS011;65911;47.502;19.148;2023-08-21T13:35:50;5.85;;;5.35;;
76978;SDS011;65911;47.502;19.148;2023-08-21T13:38:52;7.20;;;6.03;;
76978;SDS011;65911;47.502;19.148;2023-08-21T13:41:57;6.10;;;5.50;;
76978;SDS011;65911;47.502;19.148;2023-08-21T13:44:59;5.72;;;5.22;;
76978;SDS011;65911;47.502;19.148;2023-08-21T13:48:01;6.50;;;5.15;;
76978;SDS011;65911;47.502;19.148;2023-08-21T13:51:06;8.53;;;5.47;;
76978;SDS011;65911;47.502;19.148;2023-08-21T13:54:08;5.65;;;5.13;;
76978;SDS011;65911;47.502;19.148;2023-08-21T13:57:10;5.35;;;4.85;;
76978;SDS011;65911;47.502;19.148;2023-08-21T14:00:12;7.60;;;5.07;;
76978;SDS011;65911;47.502;19.148;2023-08-21T14:03:15;7.30;;;5.23;;
76978;SDS011;65911;47.502;19.148;2023-08-21T14:06:17;7.30;;;5.45;;
76978;SDS011;65911;47.502;19.148;2023-08-21T14:09:20;6.82;;;5.38;;
76978;SDS011;65911;47.502;19.148;2023-08-21T14:12:22;5.28;;;4.75;;
76978;SDS011;65911;47.502;19.148;2023-08-21T14:15:24;6.90;;;5.75;;
76978;SDS011;65911;47.502;19.148;2023-08-21T14:18:27;6.57;;;4.70;;
76978;SDS011;65911;47.502;19.148;2023-08-21T14:21:29;6.07;;;5.25;;
76978;SDS011;65911;47.502;19.148;2023-08-21T14:24:32;5.40;;;4.90;;
76978;SDS011;65911;47.502;19.148;2023-08-21T14:27:34;5.68;;;5.18;;
76978;SDS011;65911;47.502;19.148;2023-08-21T14:30:37;5.93;;;5.07;;
76978;SDS011;65911;47.502;19.148;2023-08-21T14:33:39;8.45;;;5.28;;
76978;SDS011;65911;47.502;19.148;2023-08-21T14:36:42;5.95;;;5.18;;
76978;SDS011;65911;47.502;19.148;2023-08-21T14:39:44;6.78;;;5.20;;
76978;SDS011;65911;47.502;19.148;2023-08-21T14:42:46;5.75;;;5.05;;
76978;SDS011;65911;47.502;19.148;2023-08-21T14:45:48;6.20;;;5.10;;
76978;SDS011;65911;47.502;19.148;2023-08-21T14:48:51;7.43;;;5.10;;
76978;SDS011;65911;47.502;19.148;2023-08-21T14:51:56;6.65;;;5.13;;
76978;SDS011;65911;47.502;19.148;2023-08-21T14:54:58;5.40;;;4.90;;
76978;SDS011;65911;47.502;19.148;2023-08-21T14:58:01;5.35;;;4.90;;
76978;SDS011;65911;47.502;19.148;2023-08-21T15:01:09;5.28;;;4.70;;
76978;SDS011;65911;47.502;19.148;2023-08-21T15:04:12;5.18;;;4.70;;
76978;SDS011;65911;47.502;19.148;2023-08-21T15:07:14;6.87;;;4.70;;
76978;SDS011;65911;47.502;19.148;2023-08-21T15:10:17;5.05;;;4.55;;
76978;SDS011;65911;47.502;19.148;2023-08-21T15:13:19;4.97;;;4.47;;
76978;SDS011;65911;47.502;19.148;2023-08-21T15:16:21;5.13;;;4.53;;
76978;SDS011;65911;47.502;19.148;2023-08-21T15:19:23;6.40;;;4.70;;
76978;SDS011;65911;47.502;19.148;2023-08-21T15:22:26;6.35;;;4.80;;
76978;SDS011;65911;47.502;19.148;2023-08-21T15:25:28;6.75;;;4.60;;
76978;SDS011;65911;47.502;19.148;2023-08-21T15:28:30;6.05;;;4.68;;
76978;SDS011;65911;47.502;19.148;2023-08-21T15:31:33;5.28;;;4.78;;
76978;SDS011;65911;47.502;19.148;2023-08-21T15:34:35;5.68;;;4.72;;
76978;SDS011;65911;47.502;19.148;2023-08-21T15:37:37;5.22;;;4.72;;
76978;SDS011;65911;47.502;19.148;2023-08-21T15:40:40;4.90;;;4.40;;
76978;SDS011;65911;47.502;19.148;2023-08-21T15:43:46;5.38;;;4.85;;
76978;SDS011;65911;47.502;19.148;2023-08-21T15:46:48;5.10;;;4.60;;
76978;SDS011;65911;47.502;19.148;2023-08-21T15:49:50;5.30;;;4.78;;
76978;SDS011;65911;47.502;19.148;2023-08-21T15:52:53;7.67;;;4.40;;
76978;SDS011;65911;47.502;19.148;2023-08-21T15:55:55;6.32;;;4.82;;
76978;SDS011;65911;47.502;19.148;2023-08-21T15:58:57;5.22;;;4.70;;
76978;SDS011;65911;47.502;19.148;2023-08-21T16:01:59;5.15;;;4.65;;
76978;SDS011;65911;47.502;19.148;2023-08-21T16:05:02;5.18;;;4.68;;
76978;SDS011;65911;47.502;19.148;2023-08-21T16:08:06;5.30;;;4.80;;
76978;SDS011;65911;47.502;19.148;2023-08-21T16:11:08;5.25;;;4.75;;
76978;SDS011;65911;47.502;19.148;2023-08-21T16:14:10;6.17;;;4.47;;
76978;SDS011;65911;47.502;19.148;2023-08-21T16:17:15;5.88;;;4.90;;
76978;SDS011;65911;47.502;19.148;2023-08-21T16:20:18;5.32;;;4.75;;
76978;SDS011;65911;47.502;19.148;2023-08-21T16:23:21;5.75;;;4.47;;
76978;SDS011;65911;47.502;19.148;2023-08-21T16:26:23;4.88;;;4.45;;
76978;SDS011;65911;47.502;19.148;2023-08-21T16:29:25;7.28;;;4.25;;
76978;SDS011;65911;47.502;19.148;2023-08-21T16:32:28;6.63;;;4.80;;
76978;SDS011;65911;47.502;19.148;2023-08-21T16:35:30;5.87;;;4.57;;
76978;SDS011;65911;47.502;19.148;2023-08-21T16:38:32;5.13;;;4.65;;
76978;SDS011;65911;47.502;19.148;2023-08-21T16:41:35;5.63;;;4.50;;
76978;SDS011;65911;47.502;19.148;2023-08-21T16:44:37;5.73;;;4.80;;
76978;SDS011;65911;47.502;19.148;2023-08-21T16:47:39;7.40;;;4.70;;
76978;SDS011;65911;47.502;19.148;2023-08-21T16:50:42;4.97;;;4.45;;
76978;SDS011;65911;47.502;19.148;2023-08-21T16:53:44;6.03;;;4.78;;
76978;SDS011;65911;47.502;19.148;2023-08-21T16:56:46;5.80;;;4.70;;
76978;SDS011;65911;47.502;19.148;2023-08-21T16:59:48;5.15;;;4.60;;
76978;SDS011;65911;47.502;19.148;2023-08-21T17:02:51;6.57;;;4.75;;
76978;SDS011;65911;47.502;19.148;2023-08-21T17:05:53;5.43;;;4.53;;
76978;SDS011;65911;47.502;19.148;2023-08-21T17:08:56;5.78;;;4.65;;
76978;SDS011;65911;47.502;19.148;2023-08-21T17:11:58;5.72;;;4.90;;
76978;SDS011;65911;47.502;19.148;2023-08-21T17:15:01;5.25;;;4.75;;
76978;SDS011;65911;47.502;19.148;2023-08-21T17:18:05;5.88;;;4.90;;
76978;SDS011;65911;47.502;19.148;2023-08-21T17:21:07;6.90;;;5.15;;
76978;SDS011;65911;47.502;19.148;2023-08-21T17:24:09;6.72;;;5.10;;
76978;SDS011;65911;47.502;19.148;2023-08-21T17:27:12;6.07;;;4.60;;
76978;SDS011;65911;47.502;19.148;2023-08-21T17:30:14;5.20;;;4.70;;
76978;SDS011;65911;47.502;19.148;2023-08-21T17:33:16;6.15;;;4.60;;
76978;SDS011;65911;47.502;19.148;2023-08-21T17:36:18;5.53;;;4.93;;
76978;SDS011;65911;47.502;19.148;2023-08-21T17:39:21;6.00;;;5.15;;
76978;SDS011;65911;47.502;19.148;2023-08-21T17:42:23;6.97;;;5.45;;
76978;SDS011;65911;47.502;19.148;2023-08-21T17:45:25;6.30;;;5.43;;
76978;SDS011;65911;47.502;19.148;2023-08-21T17:48:27;8.65;;;6.07;;
76978;SDS011;65911;47.502;19.148;2023-08-21T17:51:30;10.27;;;6.60;;
76978;SDS011;65911;47.502;19.148;2023-08-21T17:54:32;10.35;;;7.40;;
76978;SDS011;65911;47.502;19.148;2023-08-21T17:57:34;13.93;;;11.23;;
76978;SDS011;65911;47.502;19.148;2023-08-21T18:00:39;15.40;;;12.20;;
76978;SDS011;65911;47.502;19.148;2023-08-21T18:03:41;43.83;;;29.08;;
76978;SDS011;65911;47.502;19.148;2023-08-21T18:06:44;83.18;;;52.80;;
76978;SDS011;65911;47.502;19.148;2023-08-21T18:09:46;84.65;;;54.25;;
76978;SDS011;65911;47.502;19.148;2023-08-21T18:12:48;81.90;;;50.85;;
76978;SDS011;65911;47.502;19.148;2023-08-21T18:15:50;45.65;;;29.13;;
76978;SDS011;65911;47.502;19.148;2023-08-21T18:18:53;29.43;;;20.93;;
76978;SDS011;65911;47.502;19.148;2023-08-21T18:21:55;24.23;;;17.50;;
76978;SDS011;65911;47.502;19.148;2023-08-21T18:24:57;23.70;;;15.35;;